KLAW/LAW METAR and TAF weather

Enter ICAO airport designator
Station Type Date Time Source
KLAW METAR 2021/09/16 20:53 UTC NOAA

KLAW 162053Z 20010G16KT 10SM FEW060 33/17 A2988 RMK AO2 SLP104 T03330172 56023


Station Type Date Time Source
KLAW Decoded METAR 2021/09/16 20:53 UTC NOAA

LAWTON - FORT SILL REGIONAL, OK, United States (KLAW) 34-34N 98-25W 337M
Sep 16, 2021 - 04:53 PM EDT / 2021.09.16 2053 UTC
Wind: from the SSW (200 degrees) at 12 MPH (10 KT) gusting to 18 MPH (16 KT):0
Visibility: 10 mile(s):0
Sky conditions: mostly clear
Temperature: 91.9 F (33.3 C)
Dew Point: 63.0 F (17.2 C)
Relative Humidity: 38%
Pressure (altimeter): 29.88 in. Hg (1011 hPa)
Pressure tendency: 0.07 inches (2.3 hPa) lower than three hours ago
ob: KLAW 162053Z 20010G16KT 10SM FEW060 33/17 A2988 RMK AO2 SLP104 T03330172 56023
cycle: 21

Station Type Date Time Source
KLAW TAF 2021/09/16 18:22 UTC NOAA

TAF KLAW 161720Z 1618/1718 16008KT P6SM SCT250

Example: see airport list